createdAt,value
2018-06-13T00:00:42.401Z,98921.10
2018-06-13T00:03:11.419Z,98922.52
2018-06-13T00:05:40.360Z,98928.30
2018-06-13T00:08:09.364Z,98929.73
2018-06-13T00:10:38.371Z,98935.27
2018-06-13T00:13:07.367Z,98931.20
2018-06-13T00:15:36.381Z,98934.22
2018-06-13T00:18:05.486Z,98931.78
2018-06-13T00:20:34.492Z,98924.94
2018-06-13T00:23:03.479Z,98928.23
2018-06-13T00:25:32.412Z,98920.32
2018-06-13T00:28:01.372Z,98920.86
2018-06-13T00:30:30.308Z,98922.24
2018-06-13T00:32:59.421Z,98921.42
2018-06-13T00:35:28.437Z,98922.01
2018-06-13T00:37:57.436Z,98920.64
2018-06-13T00:40:26.461Z,98917.11
2018-06-13T00:42:55.391Z,98914.37
2018-06-13T00:45:24.485Z,98909.44
2018-06-13T00:47:53.512Z,98911.66
2018-06-13T00:50:22.553Z,98909.74
2018-06-13T00:52:51.504Z,98911.66
2018-06-13T00:55:20.450Z,98906.48
2018-06-13T00:57:49.513Z,98910.31
2018-06-13T01:00:18.473Z,98901.00
2018-06-13T01:02:47.544Z,98896.62
2018-06-13T01:05:16.557Z,98896.37
2018-06-13T01:07:45.520Z,98889.52
2018-06-13T01:10:14.620Z,98892.53
2018-06-13T01:12:43.685Z,98886.81
2018-06-13T01:15:12.708Z,98889.00
2018-06-13T01:17:42.547Z,98872.02
2018-06-13T01:20:11.560Z,98870.38
2018-06-13T01:22:40.511Z,98865.72
2018-06-13T01:25:09.520Z,98867.37
2018-06-13T01:27:38.602Z,98870.11
2018-06-13T01:30:07.522Z,98864.36
2018-06-13T01:32:36.527Z,98862.70
2018-06-13T01:35:05.545Z,98861.91
2018-06-13T01:37:34.561Z,98861.09
2018-06-13T01:40:03.589Z,98859.70
2018-06-13T01:42:32.593Z,98855.59
2018-06-13T01:45:01.647Z,98852.88
2018-06-13T01:47:30.604Z,98857.53
2018-06-13T01:49:59.608Z,98853.95
2018-06-13T01:52:28.612Z,98851.52
2018-06-13T01:54:57.556Z,98847.69
2018-06-13T01:57:26.546Z,98850.69
2018-06-13T01:59:55.545Z,98844.97
2018-06-13T02:02:24.603Z,98841.41
2018-06-13T02:04:53.670Z,98831.01
2018-06-13T02:07:22.625Z,98836.48
2018-06-13T02:09:51.781Z,98839.48
2018-06-13T02:14:48.660Z,98834.56
2018-06-13T02:17:17.616Z,98834.83
2018-06-13T02:19:46.610Z,98834.53
2018-06-13T02:22:15.721Z,98838.92
2018-06-13T02:24:44.709Z,98832.09
2018-06-13T02:27:13.709Z,98835.07
2018-06-13T02:29:42.776Z,98841.38
2018-06-13T02:32:11.815Z,98833.16
2018-06-13T02:34:40.829Z,98829.34
2018-06-13T02:37:09.837Z,98823.32
2018-06-13T02:39:38.804Z,98827.97
2018-06-13T02:42:07.816Z,98823.86
2018-06-13T02:44:36.763Z,98819.24
2018-06-13T02:47:05.753Z,98819.48
2018-06-13T02:49:34.744Z,98818.12
2018-06-13T02:52:03.723Z,98820.31
2018-06-13T02:54:32.684Z,98824.15
2018-06-13T02:57:01.632Z,98817.00
2018-06-13T02:59:30.632Z,98819.50
2018-06-13T03:01:59.643Z,98815.09
2018-06-13T03:04:28.665Z,98814.24
2018-06-13T03:06:57.677Z,98816.98
2018-06-13T03:09:26.688Z,98816.12
2018-06-13T03:11:55.756Z,98817.22
2018-06-13T03:14:24.746Z,98818.55
2018-06-13T03:16:53.720Z,98819.92
2018-06-13T03:19:22.723Z,98821.80
2018-06-13T03:21:51.704Z,98824.81
2018-06-13T03:24:20.703Z,98826.69
2018-06-13T03:26:49.801Z,98818.14
2018-06-13T03:29:18.829Z,98816.45
2018-06-13T03:31:47.849Z,98821.31
2018-06-13T03:34:16.800Z,98812.19
2018-06-13T03:36:45.799Z,98819.80
2018-06-13T03:39:14.758Z,98824.10
2018-06-13T03:41:43.756Z,98823.16
2018-06-13T03:44:12.718Z,98823.89
2018-06-13T03:46:41.665Z,98820.63
2018-06-13T03:49:10.785Z,98816.96
2018-06-13T03:51:39.868Z,98824.65
2018-06-13T03:54:08.877Z,98824.55
2018-06-13T03:56:37.961Z,98812.81
2018-06-13T03:59:06.996Z,98816.20
2018-06-13T04:01:36.000Z,98815.66
2018-06-13T04:04:04.948Z,98819.00
2018-06-13T04:06:33.889Z,98821.13
2018-06-13T04:09:03.028Z,98826.89
2018-06-13T04:11:32.009Z,98822.33
2018-06-13T04:14:01.020Z,98822.52
2018-06-13T04:16:30.009Z,98825.09
2018-06-13T04:18:59.081Z,98823.80
2018-06-13T04:21:28.106Z,98827.34
2018-06-13T04:23:57.036Z,98823.80
2018-06-13T04:26:26.079Z,98830.34
2018-06-13T04:28:55.212Z,98821.78
2018-06-13T04:31:24.174Z,98814.52
2018-06-13T04:33:53.180Z,98815.55
2018-06-13T04:36:22.176Z,98820.34
2018-06-13T04:38:51.317Z,98815.38
2018-06-13T04:41:20.333Z,98814.52
2018-06-13T04:43:49.331Z,98817.49
2018-06-13T04:46:18.316Z,98811.83
2018-06-13T04:48:47.401Z,98810.94
2018-06-13T04:51:16.489Z,98808.90
2018-06-13T04:53:45.484Z,98812.78
2018-06-13T04:56:14.439Z,98810.89
2018-06-13T04:58:43.469Z,98810.52
2018-06-13T05:01:12.419Z,98811.18
2018-06-13T05:03:41.497Z,98802.96
2018-06-13T05:06:10.465Z,98802.97
2018-06-13T05:08:39.427Z,98804.09
2018-06-13T05:11:08.449Z,98806.50
2018-06-13T05:13:37.412Z,98804.95
2018-06-13T05:16:06.427Z,98811.83
2018-06-13T05:18:35.385Z,98807.16
2018-06-13T05:21:04.332Z,98809.30
2018-06-13T05:23:33.337Z,98810.19
2018-06-13T05:26:02.310Z,98811.86
2018-06-13T05:28:31.324Z,98803.23
2018-06-13T05:31:00.263Z,98802.18
2018-06-13T05:33:29.265Z,98801.67
2018-06-13T05:35:58.272Z,98804.69
2018-06-13T05:38:27.240Z,98798.91
2018-06-13T05:40:56.415Z,98801.28
2018-06-13T05:43:25.470Z,98800.19
2018-06-13T05:45:54.449Z,98798.70
2018-06-13T05:48:23.470Z,98790.51
2018-06-13T05:50:52.537Z,98793.11
2018-06-13T05:53:21.548Z,98799.05
2018-06-13T05:55:50.499Z,98797.03
2018-06-13T05:58:19.526Z,98798.23
2018-06-13T06:00:48.544Z,98789.67
2018-06-13T06:03:17.605Z,98793.31
2018-06-13T06:05:46.739Z,98798.73
2018-06-13T06:08:15.700Z,98799.84
2018-06-13T06:10:44.750Z,98794.69
2018-06-13T06:13:13.779Z,98792.23
2018-06-13T06:15:42.784Z,98795.00
2018-06-13T06:18:11.812Z,98790.32
2018-06-13T06:20:40.906Z,98791.18
2018-06-13T06:23:10.047Z,98788.34
2018-06-13T06:25:39.008Z,98791.44
2018-06-13T06:28:08.014Z,98786.30
2018-06-13T06:30:37.040Z,98789.70
2018-06-13T06:33:06.059Z,98786.70
2018-06-13T06:35:35.130Z,98784.13
2018-06-13T06:38:04.155Z,98782.78
2018-06-13T06:40:33.112Z,98776.61
2018-06-13T06:43:02.116Z,98775.31
2018-06-13T06:45:31.225Z,98777.06
2018-06-13T06:48:00.307Z,98767.75
2018-06-13T06:50:29.266Z,98770.50
2018-06-13T06:52:58.336Z,98767.62
2018-06-13T06:55:27.399Z,98764.30
2018-06-13T06:57:56.320Z,98767.83
2018-06-13T07:00:25.259Z,98766.80
2018-06-13T07:02:54.233Z,98767.93
2018-06-13T07:05:23.229Z,98766.09
2018-06-13T07:07:52.289Z,98765.23
2018-06-13T07:10:21.248Z,98765.92
2018-06-13T07:12:50.191Z,98767.02
2018-06-13T07:15:19.275Z,98767.12
2018-06-13T07:17:48.332Z,98771.68
2018-06-13T07:20:17.412Z,98767.48
2018-06-13T07:22:46.371Z,98773.74
2018-06-13T07:25:15.370Z,98776.11
2018-06-13T07:27:44.388Z,98779.97
2018-06-13T07:30:13.398Z,98768.38
2018-06-13T07:32:42.449Z,98778.47
2018-06-13T07:35:11.404Z,98774.03
2018-06-13T07:37:40.429Z,98771.42
2018-06-13T07:40:09.506Z,98772.55
2018-06-13T07:42:38.500Z,98770.45
2018-06-13T07:45:07.564Z,98769.30
2018-06-13T07:47:36.524Z,98766.83
2018-06-13T07:50:05.632Z,98768.56
2018-06-13T07:52:34.583Z,98758.44
2018-06-13T07:55:03.582Z,98760.10
2018-06-13T07:57:32.616Z,98755.58
2018-06-13T08:00:01.629Z,98756.86
2018-06-13T08:02:30.576Z,98750.60
2018-06-13T08:04:59.528Z,98755.09
2018-06-13T08:07:28.542Z,98746.95
2018-06-13T08:09:57.661Z,98752.95
2018-06-13T08:12:26.637Z,98747.96
2018-06-13T08:14:55.642Z,98752.20
2018-06-13T08:17:24.668Z,98748.64
2018-06-13T08:19:53.769Z,98749.54
2018-06-13T08:22:22.792Z,98755.08
2018-06-13T08:24:53.749Z,98744.80
2018-06-13T08:27:22.783Z,98748.76
2018-06-13T08:29:51.808Z,98744.31
2018-06-13T08:32:20.851Z,98743.14
2018-06-13T08:34:49.853Z,98741.13
2018-06-13T08:37:18.849Z,98738.34
2018-06-13T08:39:48.024Z,98740.05
2018-06-13T08:42:16.957Z,98732.92
2018-06-13T08:44:46.014Z,98736.23
2018-06-13T08:47:15.023Z,98734.83
2018-06-13T08:49:44.029Z,98735.37
2018-06-13T08:52:13.149Z,98726.38
2018-06-13T08:54:42.156Z,98722.45
2018-06-13T08:57:11.117Z,98725.72
2018-06-13T08:59:40.202Z,98726.45
2018-06-13T09:02:09.194Z,98726.31
2018-06-13T09:04:38.146Z,98727.33
2018-06-13T09:07:07.205Z,98722.78
2018-06-13T09:09:36.217Z,98721.08
2018-06-13T09:12:05.291Z,98717.55
2018-06-13T09:14:34.284Z,98719.16
2018-06-13T09:17:03.276Z,98715.30
2018-06-13T09:19:32.347Z,98708.94
2018-06-13T09:22:01.300Z,98710.90
2018-06-13T09:24:30.381Z,98708.02
2018-06-13T09:26:59.327Z,98704.74
2018-06-13T09:29:28.328Z,98699.82
2018-06-13T09:31:57.415Z,98708.62
2018-06-13T09:34:26.557Z,98707.39
2018-06-13T09:36:55.580Z,98700.11
2018-06-13T09:39:24.600Z,98700.82
2018-06-13T09:41:58.634Z,98697.25
2018-06-13T09:44:27.644Z,98692.67
2018-06-13T09:46:56.580Z,98695.59
2018-06-13T09:49:25.540Z,98692.05
2018-06-13T09:51:54.581Z,98688.87
2018-06-13T09:54:23.593Z,98688.41
2018-06-13T09:56:52.612Z,98688.16
2018-06-13T09:59:21.981Z,98692.01
2018-06-13T10:01:56.125Z,98681.73
2018-06-13T10:04:25.145Z,98683.83
2018-06-13T10:06:54.179Z,98673.16
2018-06-13T10:09:23.128Z,98669.34
2018-06-13T10:11:52.127Z,98676.14
2018-06-13T10:14:21.088Z,98673.16
2018-06-13T10:16:50.138Z,98670.34
2018-06-13T10:19:19.190Z,98669.44
2018-06-13T10:21:48.262Z,98667.32
2018-06-13T10:24:17.277Z,98662.30
2018-06-13T10:26:46.260Z,98659.90
2018-06-13T10:29:15.219Z,98661.28
2018-06-13T10:31:44.350Z,98659.28
2018-06-13T10:34:13.359Z,98658.92
2018-06-13T10:36:42.306Z,98656.75
2018-06-13T10:39:11.248Z,98649.05
2018-06-13T10:41:40.184Z,98640.41
2018-06-13T10:44:09.201Z,98646.69
2018-06-13T10:46:38.264Z,98636.97
2018-06-13T10:49:07.272Z,98641.80
2018-06-13T10:51:36.216Z,98638.67
2018-06-13T10:54:05.228Z,98632.94
2018-06-13T10:56:34.342Z,98626.45
2018-06-13T10:59:03.304Z,98622.26
2018-06-13T11:01:32.305Z,98615.15
2018-06-13T11:04:01.309Z,98625.84
2018-06-13T11:06:30.255Z,98615.72
2018-06-13T11:08:59.333Z,98616.87
2018-06-13T11:11:28.296Z,98606.55
2018-06-13T11:13:57.291Z,98600.14
2018-06-13T11:16:26.309Z,98590.67
2018-06-13T11:18:55.341Z,98589.27
2018-06-13T11:21:24.497Z,98584.08
2018-06-13T11:23:53.560Z,98592.09
2018-06-13T11:26:22.587Z,98581.77
2018-06-13T11:28:51.617Z,98574.52
2018-06-13T11:31:20.650Z,98570.61
2018-06-13T11:33:49.745Z,98571.46
2018-06-13T11:36:18.813Z,98574.59
2018-06-13T11:38:47.767Z,98572.80
2018-06-13T11:41:16.722Z,98572.75
2018-06-13T11:43:45.773Z,98565.83
2018-06-13T11:46:14.841Z,98561.83
2018-06-13T11:48:43.804Z,98552.83
2018-06-13T11:51:12.812Z,98557.20
2018-06-13T11:53:42.090Z,98554.56
2018-06-13T11:56:11.001Z,98551.66
2018-06-13T11:58:40.067Z,98554.47
2018-06-13T12:01:09.138Z,98555.36
2018-06-13T12:03:38.234Z,98555.36
2018-06-13T12:06:07.269Z,98550.23
2018-06-13T12:08:37.275Z,98553.64
2018-06-13T12:11:06.291Z,98544.45
2018-06-13T12:13:35.294Z,98543.54
2018-06-13T12:16:04.308Z,98537.16
2018-06-13T12:19:04.549Z,98546.77
2018-06-13T12:21:33.561Z,98548.75
2018-06-13T12:24:02.625Z,98536.61
2018-06-13T12:26:31.640Z,98536.86
2018-06-13T12:29:00.644Z,98530.09
2018-06-13T12:31:29.619Z,98529.61
2018-06-13T12:33:58.616Z,98532.61
2018-06-13T12:36:27.689Z,98532.47
2018-06-13T12:38:56.710Z,98517.98
2018-06-13T12:41:25.657Z,98518.98
2018-06-13T12:43:54.624Z,98507.10
2018-06-13T12:46:23.573Z,98505.20
2018-06-13T12:48:52.576Z,98496.99
2018-06-13T12:51:21.520Z,98490.25
2018-06-13T12:53:50.524Z,98481.12
2018-06-13T12:56:19.462Z,98477.67
2018-06-13T12:58:48.528Z,98476.72
2018-06-13T13:01:17.517Z,98483.31
2018-06-13T13:03:46.462Z,98479.63
2018-06-13T13:06:15.497Z,98483.39
2018-06-13T13:08:44.504Z,98479.23
2018-06-13T13:11:13.511Z,98469.56
2018-06-13T13:13:42.520Z,98466.36
2018-06-13T13:16:11.526Z,98468.02
2018-06-13T13:18:40.543Z,98463.41
2018-06-13T13:21:09.707Z,98461.01
2018-06-13T13:23:38.719Z,98460.23
2018-06-13T13:26:07.725Z,98462.05
2018-06-13T13:28:36.747Z,98466.71
2018-06-13T13:31:05.723Z,98460.06
2018-06-13T13:33:34.736Z,98464.60
2018-06-13T13:36:03.745Z,98469.43
2018-06-13T13:38:32.858Z,98463.27
2018-06-13T13:41:01.882Z,98464.08
2018-06-13T13:43:30.881Z,98458.17
2018-06-13T13:45:59.888Z,98464.69
2018-06-13T13:48:28.921Z,98460.74
2018-06-13T13:50:58.012Z,98467.83
2018-06-13T13:53:27.085Z,98467.97
2018-06-13T13:55:56.091Z,98455.15
2018-06-13T13:58:25.076Z,98444.96
2018-06-13T14:00:54.162Z,98450.24
2018-06-13T14:03:23.349Z,98441.76
2018-06-13T14:05:52.353Z,98443.09
2018-06-13T14:08:21.395Z,98424.80
2018-06-13T14:10:50.468Z,98443.64
2018-06-13T14:13:19.462Z,98443.74
2018-06-13T14:15:48.607Z,98456.06
2018-06-13T14:18:17.556Z,98458.95
2018-06-13T14:20:46.552Z,98458.33
2018-06-13T14:23:17.118Z,98452.70
2018-06-13T14:25:46.117Z,98448.94
2018-06-13T14:28:15.180Z,98451.55
2018-06-13T14:30:44.266Z,98450.46
2018-06-13T14:33:13.521Z,98461.90
2018-06-13T14:35:42.549Z,98465.18
2018-06-13T14:38:11.582Z,98472.55
2018-06-13T14:40:40.620Z,98470.95
2018-06-13T14:43:09.580Z,98460.61
2018-06-13T14:45:38.544Z,98463.16
2018-06-13T14:48:07.580Z,98462.85
2018-06-13T14:50:36.532Z,98463.38
2018-06-13T14:53:05.621Z,98459.42
2018-06-13T14:55:40.378Z,98458.89
2018-06-13T14:58:09.624Z,98454.63
2018-06-13T15:00:38.657Z,98446.20
2018-06-13T15:03:07.739Z,98442.16
2018-06-13T15:05:36.724Z,98450.30
2018-06-13T15:08:05.687Z,98450.38
2018-06-13T15:10:34.805Z,98450.62
2018-06-13T15:13:03.821Z,98451.80
2018-06-13T15:15:32.835Z,98455.78
2018-06-13T15:18:01.801Z,98440.80
2018-06-13T15:20:30.793Z,98437.91
2018-06-13T15:22:59.857Z,98446.04
2018-06-13T15:25:28.925Z,98437.23
2018-06-13T15:27:57.964Z,98436.38
2018-06-13T15:30:26.969Z,98437.28
2018-06-13T15:32:55.956Z,98438.64
2018-06-13T15:35:25.028Z,98442.11
2018-06-13T15:37:53.993Z,98431.73
2018-06-13T15:40:23.084Z,98432.02
2018-06-13T15:42:52.213Z,98425.48
2018-06-13T15:45:21.233Z,98416.48
2018-06-13T15:47:50.301Z,98413.23
2018-06-13T15:50:19.289Z,98403.52
2018-06-13T15:52:48.316Z,98405.67
2018-06-13T15:55:17.297Z,98404.41
2018-06-13T15:57:46.384Z,98405.47
2018-06-13T16:00:15.448Z,98396.59
2018-06-13T16:02:44.454Z,98398.84
2018-06-13T16:05:13.520Z,98387.08
2018-06-13T16:07:42.662Z,98388.48
2018-06-13T16:10:11.781Z,98384.80
2018-06-13T16:12:40.943Z,98382.42
2018-06-13T16:15:10.000Z,98371.45
2018-06-13T16:17:39.021Z,98377.53
2018-06-13T16:20:08.005Z,98377.11
2018-06-13T16:22:37.008Z,98391.74
2018-06-13T16:25:06.060Z,98395.10
2018-06-13T16:27:35.026Z,98396.17
2018-06-13T16:30:04.157Z,98403.35
2018-06-13T16:32:33.213Z,98405.23
2018-06-13T16:35:02.289Z,98407.34
2018-06-13T16:37:31.413Z,98420.30
2018-06-13T16:40:01.185Z,98422.86
2018-06-13T16:42:30.240Z,98424.23
2018-06-13T16:44:59.262Z,98426.58
2018-06-13T16:47:28.208Z,98428.73
2018-06-13T16:49:57.278Z,98439.28
2018-06-13T16:52:37.157Z,98448.06
2018-06-13T16:55:24.690Z,98451.67
2018-06-13T16:57:53.780Z,98461.02
2018-06-13T17:00:23.261Z,98465.63
2018-06-13T17:02:52.608Z,98467.02
2018-06-13T17:05:21.560Z,98470.72
2018-06-13T17:07:50.676Z,98477.66
2018-06-13T17:10:19.799Z,98488.52
2018-06-13T17:12:48.810Z,98493.36
2018-06-13T17:15:17.760Z,98508.92
2018-06-13T17:17:46.754Z,98503.64
2018-06-13T17:20:15.821Z,98506.25
2018-06-13T17:22:44.899Z,98509.69
2018-06-13T17:25:13.854Z,98519.82
2018-06-13T17:27:44.943Z,98526.02
2018-06-13T17:30:14.025Z,98525.02
2018-06-13T17:32:43.096Z,98531.05
2018-06-13T17:35:12.166Z,98535.16
2018-06-13T17:37:41.153Z,98535.79
2018-06-13T17:40:10.157Z,98541.27
2018-06-13T17:42:39.290Z,98538.19
2018-06-13T17:45:08.309Z,98545.69
2018-06-13T17:47:37.361Z,98540.64
2018-06-13T17:50:06.298Z,98547.03
2018-06-13T17:52:35.272Z,98538.45
2018-06-13T17:55:04.273Z,98537.84
2018-06-13T17:57:33.390Z,98533.39
2018-06-13T18:00:02.375Z,98523.82
2018-06-13T18:02:31.388Z,98511.70
2018-06-13T18:05:00.436Z,98506.52
2018-06-13T18:07:29.401Z,98504.80
2018-06-13T18:09:58.380Z,98509.47
2018-06-13T18:12:27.436Z,98517.80
2018-06-13T18:14:56.456Z,98516.67
2018-06-13T18:17:25.477Z,98520.24
2018-06-13T18:19:54.496Z,98529.36
2018-06-13T18:22:23.553Z,98546.45
2018-06-13T18:24:52.588Z,98547.17
2018-06-13T18:27:21.612Z,98547.63
2018-06-13T18:29:50.605Z,98550.57
2018-06-13T18:32:19.612Z,98548.05
2018-06-13T18:34:48.703Z,98556.73
2018-06-13T18:37:17.774Z,98567.05
2018-06-13T18:39:46.776Z,98575.91
2018-06-13T18:42:15.696Z,98575.01
2018-06-13T18:44:44.780Z,98570.53
2018-06-13T18:47:13.870Z,98574.17
2018-06-13T18:49:42.910Z,98583.91
2018-06-13T18:52:11.933Z,98593.68
2018-06-13T18:54:41.033Z,98596.58
2018-06-13T18:57:10.221Z,98598.59
2018-06-13T18:59:39.280Z,98611.96
2018-06-13T19:02:08.364Z,98611.14
2018-06-13T19:04:37.414Z,98623.32
2018-06-13T19:07:06.361Z,98629.72
2018-06-13T19:09:35.326Z,98631.11
2018-06-13T19:12:04.352Z,98640.05
2018-06-13T19:14:33.301Z,98639.36
2018-06-13T19:17:02.274Z,98641.20
2018-06-13T19:19:31.396Z,98640.86
2018-06-13T19:22:00.425Z,98639.75
2018-06-13T19:24:29.437Z,98638.84
2018-06-13T19:26:58.396Z,98638.98
2018-06-13T19:29:27.749Z,98638.62
2018-06-13T19:31:56.753Z,98640.25
2018-06-13T19:34:25.837Z,98646.16
2018-06-13T19:36:54.899Z,98645.66
2018-06-13T19:39:23.997Z,98653.47
2018-06-13T19:41:52.951Z,98651.16
2018-06-13T19:44:21.996Z,98653.80
2018-06-13T19:46:51.069Z,98651.79
2018-06-13T19:49:20.103Z,98641.73
2018-06-13T19:51:49.096Z,98639.69
2018-06-13T19:54:23.299Z,98642.58
2018-06-13T19:56:52.317Z,98647.70
2018-06-13T19:59:21.304Z,98650.55
2018-06-13T20:01:50.678Z,98655.55
2018-06-13T20:04:24.809Z,98657.80
2018-06-13T20:06:53.812Z,98657.41
2018-06-13T20:09:22.820Z,98660.80
2018-06-13T20:11:51.776Z,98662.58
2018-06-13T20:14:25.820Z,98659.94
2018-06-13T20:16:59.905Z,98659.13
2018-06-13T20:19:35.571Z,98667.43
2018-06-13T20:22:04.523Z,98669.48
2018-06-13T20:24:33.565Z,98686.05
2018-06-13T20:27:07.557Z,98687.73
2018-06-13T20:29:41.432Z,98702.62
2018-06-13T20:32:10.376Z,98706.00
2018-06-13T20:34:39.365Z,98706.83
2018-06-13T20:37:08.381Z,98723.53
2018-06-13T20:39:37.400Z,98750.10
2018-06-13T20:42:06.401Z,98789.36
2018-06-13T20:44:35.384Z,98821.52
2018-06-13T20:47:04.319Z,98830.59
2018-06-13T20:49:33.460Z,98855.63
2018-06-13T20:52:02.521Z,98856.50
2018-06-13T20:54:31.496Z,98858.65
2018-06-13T20:57:00.468Z,98853.38
2018-06-13T20:59:29.435Z,98864.91
2018-06-13T21:01:58.439Z,98856.29
2018-06-13T21:04:27.380Z,98855.23
2018-06-13T21:06:56.384Z,98875.19
2018-06-13T21:09:25.416Z,98880.13
2018-06-13T21:11:54.364Z,98884.64
2018-06-13T21:14:23.304Z,98894.95
2018-06-13T21:16:52.320Z,98900.03
2018-06-13T21:19:21.286Z,98915.23
2018-06-13T21:21:50.235Z,98905.39
2018-06-13T21:24:19.280Z,98913.80
2018-06-13T21:26:48.450Z,98923.52
2018-06-13T21:29:17.411Z,98927.76
2018-06-13T21:31:46.528Z,98926.26
2018-06-13T21:34:15.475Z,98932.97
2018-06-13T21:36:44.416Z,98930.33
2018-06-13T21:39:13.488Z,98940.08
2018-06-13T21:41:42.592Z,98948.07
2018-06-13T21:44:11.619Z,98945.97
2018-06-13T21:46:40.581Z,98945.55
2018-06-13T21:49:09.621Z,98940.95
2018-06-13T21:51:38.743Z,98946.23
2018-06-13T21:54:07.674Z,98939.70
2018-06-13T21:56:36.608Z,98943.33
2018-06-13T21:59:05.728Z,98939.27
2018-06-13T22:01:34.667Z,98934.11
2018-06-13T22:04:03.657Z,98933.34
2018-06-13T22:06:32.590Z,98938.05
2018-06-13T22:09:01.645Z,98939.20
2018-06-13T22:11:30.700Z,98941.12
2018-06-13T22:13:59.705Z,98941.70
2018-06-13T22:16:28.705Z,98948.83
2018-06-13T22:18:57.885Z,98952.66
2018-06-13T22:21:26.875Z,98947.45
2018-06-13T22:23:55.818Z,98952.62
2018-06-13T22:26:24.800Z,98954.03
2018-06-13T22:28:53.752Z,98954.31
2018-06-13T22:31:22.684Z,98952.97
2018-06-13T22:33:51.740Z,98950.23
2018-06-13T22:36:20.824Z,98946.40
2018-06-13T22:38:50.283Z,98935.95
2018-06-13T22:41:19.913Z,98939.52
2018-06-13T22:43:48.875Z,98932.66
2018-06-13T22:46:17.878Z,98925.27
2018-06-13T22:48:46.843Z,98917.08
2018-06-13T22:51:15.812Z,98914.37
2018-06-13T22:53:44.860Z,98917.69
2018-06-13T22:56:13.864Z,98906.75
2018-06-13T22:58:42.868Z,98903.77
2018-06-13T23:01:12.825Z,98894.45
2018-06-13T23:03:41.759Z,98891.46
2018-06-13T23:06:11.584Z,98884.09
2018-06-13T23:08:40.737Z,98880.55
2018-06-13T23:11:09.759Z,98870.11
2018-06-13T23:13:38.749Z,98873.67
2018-06-13T23:16:07.811Z,98884.62
2018-06-13T23:18:36.885Z,98887.38
2018-06-13T23:21:05.812Z,98893.39
2018-06-13T23:23:34.905Z,98911.19
2018-06-13T23:26:03.903Z,98905.16
2018-06-13T23:28:32.923Z,98901.87
2018-06-13T23:31:01.909Z,98899.96
2018-06-13T23:33:30.879Z,98908.45
2018-06-13T23:35:59.827Z,98905.98
2018-06-13T23:38:28.891Z,98903.78
2018-06-13T23:40:57.940Z,98889.83
2018-06-13T23:43:27.016Z,98882.45
2018-06-13T23:45:55.975Z,98880.25
2018-06-13T23:48:24.968Z,98875.88
2018-06-13T23:50:53.979Z,98874.53
2018-06-13T23:53:22.987Z,98859.72
2018-06-13T23:55:52.024Z,98864.36
2018-06-13T23:58:21.016Z,98861.35
